createdAt,value
2023-01-25T00:00:00.832Z,29.33
2023-01-25T00:02:27.905Z,30.33
2023-01-25T00:04:54.785Z,30.10
2023-01-25T00:07:21.235Z,29.60
2023-01-25T00:09:47.690Z,30.73
2023-01-25T00:12:14.262Z,33.45
2023-01-25T00:14:40.774Z,34.53
2023-01-25T00:17:07.249Z,33.10
2023-01-25T00:19:33.878Z,33.50
2023-01-25T00:22:00.369Z,31.00
2023-01-25T00:24:27.226Z,30.90
2023-01-25T00:26:53.754Z,32.45
2023-01-25T00:29:20.153Z,32.38
2023-01-25T00:31:49.437Z,35.42
2023-01-25T00:34:42.205Z,35.70
2023-01-25T00:37:25.306Z,31.10
2023-01-25T00:39:52.175Z,32.83
2023-01-25T00:42:20.148Z,37.22
2023-01-25T00:44:47.618Z,36.15
2023-01-25T00:47:15.467Z,35.10
2023-01-25T00:49:43.096Z,35.67
2023-01-25T00:52:13.193Z,36.65
2023-01-25T00:54:40.280Z,36.50
2023-01-25T00:57:08.244Z,35.40
2023-01-25T00:59:34.692Z,34.15
2023-01-25T01:02:01.468Z,31.17
2023-01-25T01:04:28.044Z,30.15
2023-01-25T01:06:55.226Z,36.92
2023-01-25T01:09:23.494Z,37.10
2023-01-25T01:11:50.214Z,37.13
2023-01-25T01:14:16.713Z,37.08
2023-01-25T01:16:43.143Z,37.28
2023-01-25T01:19:10.764Z,32.90
2023-01-25T01:21:37.344Z,30.75
2023-01-25T01:24:04.370Z,33.95
2023-01-25T01:26:30.781Z,32.55
2023-01-25T01:28:58.920Z,33.97
2023-01-25T01:31:25.453Z,34.78
2023-01-25T01:33:53.910Z,30.77
2023-01-25T01:36:25.957Z,33.65
2023-01-25T01:38:52.909Z,32.25
2023-01-25T01:41:20.047Z,29.92
2023-01-25T01:43:46.894Z,32.60
2023-01-25T01:46:34.417Z,30.25
2023-01-25T01:49:12.352Z,32.88
2023-01-25T01:51:56.236Z,31.67
2023-01-25T01:54:35.275Z,36.17
2023-01-25T01:57:10.528Z,34.47
2023-01-25T01:59:44.577Z,33.63
2023-01-25T02:02:11.441Z,32.58
2023-01-25T02:04:38.031Z,34.15
2023-01-25T02:07:11.658Z,33.60
2023-01-25T02:09:38.090Z,32.53
2023-01-25T02:12:07.480Z,35.65
2023-01-25T02:14:34.661Z,34.63
2023-01-25T02:17:01.351Z,34.72
2023-01-25T02:19:50.158Z,32.47
2023-01-25T02:22:23.026Z,31.65
2023-01-25T02:25:10.081Z,32.15
2023-01-25T02:27:40.748Z,31.15
2023-01-25T02:30:08.811Z,30.73
2023-01-25T02:32:35.326Z,32.00
2023-01-25T02:35:02.019Z,30.85
2023-01-25T02:37:31.589Z,29.13
2023-01-25T02:39:58.021Z,30.13
2023-01-25T02:42:24.630Z,28.40
2023-01-25T02:44:52.310Z,29.50
2023-01-25T02:47:18.889Z,28.65
2023-01-25T02:49:45.301Z,31.05
2023-01-25T02:52:11.764Z,30.38
2023-01-25T02:54:38.222Z,29.00
2023-01-25T02:57:04.770Z,30.42
2023-01-25T02:59:31.132Z,31.13
2023-01-25T03:01:57.580Z,32.78
2023-01-25T03:04:24.701Z,31.95
2023-01-25T03:06:51.942Z,30.83
2023-01-25T03:09:18.425Z,32.63
2023-01-25T03:11:44.995Z,35.45
2023-01-25T03:14:11.462Z,31.55
2023-01-25T03:16:38.087Z,31.90
2023-01-25T03:19:04.581Z,32.80
2023-01-25T03:21:31.484Z,30.70
2023-01-25T03:24:01.458Z,32.05
2023-01-25T03:26:29.246Z,31.90
2023-01-25T03:28:55.739Z,29.95
2023-01-25T03:31:22.296Z,27.67
2023-01-25T03:33:49.714Z,33.33
2023-01-25T03:36:16.467Z,36.70
2023-01-25T03:38:43.145Z,31.42
2023-01-25T03:41:09.958Z,34.97
2023-01-25T03:43:36.379Z,32.67
2023-01-25T03:46:03.016Z,30.85
2023-01-25T03:48:29.708Z,31.42
2023-01-25T03:50:58.193Z,33.40
2023-01-25T03:53:29.991Z,36.15
2023-01-25T03:56:02.440Z,35.72
2023-01-25T03:58:30.316Z,39.15
2023-01-25T04:00:59.045Z,37.20
2023-01-25T04:03:26.184Z,39.67
2023-01-25T04:05:53.720Z,35.78
2023-01-25T04:08:20.624Z,34.17
2023-01-25T04:10:56.233Z,38.25
2023-01-25T04:13:24.970Z,35.55
2023-01-25T04:15:52.235Z,33.15
2023-01-25T04:18:19.421Z,32.17
2023-01-25T04:20:55.312Z,31.77
2023-01-25T04:23:22.728Z,32.20
2023-01-25T04:25:54.181Z,34.15
2023-01-25T04:28:20.943Z,34.47
2023-01-25T04:30:47.560Z,34.63
2023-01-25T04:33:14.612Z,36.60
2023-01-25T04:35:41.232Z,32.38
2023-01-25T04:38:07.831Z,31.60
2023-01-25T04:40:34.287Z,32.00
2023-01-25T04:43:00.721Z,32.17
2023-01-25T04:45:27.302Z,34.53
2023-01-25T04:48:05.792Z,34.10
2023-01-25T04:50:32.334Z,33.85
2023-01-25T04:52:58.844Z,31.70
2023-01-25T04:55:25.262Z,30.10
2023-01-25T04:57:51.836Z,33.72
2023-01-25T05:00:19.243Z,33.80
2023-01-25T05:02:45.771Z,35.08
2023-01-25T05:05:12.551Z,35.03
2023-01-25T05:07:39.390Z,33.30
2023-01-25T05:10:06.794Z,34.95
2023-01-25T05:12:33.483Z,35.08
2023-01-25T05:14:59.894Z,32.55
2023-01-25T05:17:26.436Z,33.28
2023-01-25T05:19:52.951Z,35.83
2023-01-25T05:22:20.962Z,37.42
2023-01-25T05:24:48.144Z,36.88
2023-01-25T05:27:17.655Z,36.65
2023-01-25T05:29:45.463Z,37.15
2023-01-25T05:32:17.937Z,37.72
2023-01-25T05:34:45.265Z,37.67
2023-01-25T05:37:14.351Z,34.47
2023-01-25T05:39:40.941Z,35.72
2023-01-25T05:42:18.342Z,37.58
2023-01-25T05:44:47.581Z,34.20
2023-01-25T05:47:16.351Z,37.08
2023-01-25T05:49:42.896Z,35.95
2023-01-25T05:52:14.896Z,35.70
2023-01-25T05:54:41.375Z,37.88
2023-01-25T05:57:07.945Z,33.13
2023-01-25T05:59:34.492Z,34.78
2023-01-25T06:02:01.161Z,34.67
2023-01-25T06:04:27.684Z,33.53
2023-01-25T06:06:54.110Z,36.78
2023-01-25T06:09:20.462Z,33.05
2023-01-25T06:11:46.914Z,31.02
2023-01-25T06:14:13.513Z,32.20
2023-01-25T06:16:40.145Z,35.15
2023-01-25T06:19:07.509Z,33.22
2023-01-25T06:21:37.752Z,32.25
2023-01-25T06:26:31.349Z,31.38
2023-01-25T06:28:57.903Z,32.55
2023-01-25T06:31:24.466Z,31.98
2023-01-25T06:33:52.576Z,35.13
2023-01-25T06:36:20.207Z,32.25
2023-01-25T06:38:51.088Z,30.98
2023-01-25T06:41:18.354Z,31.25
2023-01-25T06:43:45.447Z,30.02
2023-01-25T06:46:12.611Z,32.90
2023-01-25T06:48:40.139Z,33.97
2023-01-25T06:51:08.623Z,32.33
2023-01-25T06:53:39.474Z,33.80
2023-01-25T06:56:10.905Z,33.70
2023-01-25T06:58:38.817Z,34.38
2023-01-25T07:01:12.456Z,35.90
2023-01-25T07:03:39.487Z,32.97
2023-01-25T07:06:07.929Z,31.45
2023-01-25T07:08:35.137Z,35.75
2023-01-25T07:11:04.323Z,31.77
2023-01-25T07:13:32.396Z,31.35
2023-01-25T07:16:01.556Z,36.28
2023-01-25T07:18:30.010Z,36.35
2023-01-25T07:21:13.686Z,36.40
2023-01-25T07:23:41.637Z,31.35
2023-01-25T07:26:17.683Z,34.17
2023-01-25T07:28:45.739Z,33.92
2023-01-25T07:31:12.518Z,34.78
2023-01-25T07:33:38.912Z,36.30
2023-01-25T07:36:07.937Z,34.50
2023-01-25T07:38:34.905Z,34.42
2023-01-25T07:41:01.552Z,34.72
2023-01-25T07:43:29.226Z,38.35
2023-01-25T07:46:01.866Z,36.90
2023-01-25T07:48:28.487Z,35.17
2023-01-25T07:51:20.529Z,39.20
2023-01-25T07:53:47.503Z,36.70
2023-01-25T07:56:14.076Z,34.78
2023-01-25T07:58:40.481Z,41.35
2023-01-25T08:01:18.302Z,46.58
2023-01-25T08:03:45.996Z,54.75
2023-01-25T08:06:12.823Z,50.20
2023-01-25T08:08:42.280Z,46.15
2023-01-25T08:11:18.192Z,44.58
2023-01-25T08:13:47.590Z,36.60
2023-01-25T08:16:14.811Z,36.13
2023-01-25T08:18:41.347Z,43.53
2023-01-25T08:21:08.538Z,58.28
2023-01-25T08:23:35.350Z,46.10
2023-01-25T08:26:04.739Z,41.55
2023-01-25T08:28:31.421Z,45.70
2023-01-25T08:31:16.583Z,46.20
2023-01-25T08:33:44.468Z,41.53
2023-01-25T08:36:11.073Z,44.15
2023-01-25T08:38:41.986Z,61.20
2023-01-25T08:41:15.782Z,39.78
2023-01-25T08:43:44.475Z,36.72
2023-01-25T08:46:11.267Z,37.97
2023-01-25T08:48:37.818Z,37.08
2023-01-25T08:51:04.460Z,54.45
2023-01-25T08:53:31.993Z,45.00
2023-01-25T08:56:12.159Z,39.63
2023-01-25T09:01:08.760Z,36.17
2023-01-25T09:03:36.740Z,33.70
2023-01-25T09:06:03.309Z,42.72
2023-01-25T09:08:29.868Z,54.45
2023-01-25T09:11:01.433Z,58.85
2023-01-25T09:13:28.193Z,45.28
2023-01-25T09:16:06.708Z,42.35
2023-01-25T09:18:35.448Z,47.42
2023-01-25T09:21:10.324Z,46.30
2023-01-25T09:23:50.481Z,45.83
2023-01-25T09:26:18.952Z,43.65
2023-01-25T09:28:50.787Z,39.30
2023-01-25T09:31:22.033Z,40.03
2023-01-25T09:33:50.370Z,41.28
2023-01-25T09:36:17.073Z,40.22
2023-01-25T09:38:43.602Z,41.92
2023-01-25T09:41:21.888Z,45.97
2023-01-25T09:44:25.299Z,44.50
2023-01-25T09:46:56.078Z,49.45
2023-01-25T09:49:31.635Z,44.78
2023-01-25T09:51:58.226Z,40.70
2023-01-25T09:54:28.502Z,48.45
2023-01-25T09:56:57.348Z,50.63
2023-01-25T09:59:28.512Z,49.40
2023-01-25T10:02:05.746Z,50.72
2023-01-25T10:04:40.181Z,53.10
2023-01-25T10:07:18.644Z,48.95
2023-01-25T10:09:53.310Z,51.90
2023-01-25T10:12:23.767Z,52.55
2023-01-25T10:14:51.542Z,52.45
2023-01-25T10:17:40.406Z,51.35
2023-01-25T10:20:25.330Z,51.65
2023-01-25T10:23:08.381Z,53.85
2023-01-25T10:25:41.466Z,53.58
2023-01-25T10:28:24.640Z,51.95
2023-01-25T10:31:02.563Z,53.00
2023-01-25T10:33:34.854Z,53.33
2023-01-25T10:36:04.545Z,54.63
2023-01-25T10:38:45.370Z,56.17
2023-01-25T10:41:30.537Z,54.72
2023-01-25T10:44:15.801Z,53.85
2023-01-25T10:46:49.285Z,53.30
2023-01-25T10:49:22.030Z,54.35
2023-01-25T10:51:48.499Z,53.40
2023-01-25T10:54:16.580Z,53.28
2023-01-25T10:56:46.080Z,58.50
2023-01-25T10:59:23.609Z,52.42
2023-01-25T11:01:50.084Z,56.67
2023-01-25T11:04:35.185Z,57.95
2023-01-25T11:07:06.001Z,56.88
2023-01-25T11:09:34.045Z,55.97
2023-01-25T11:12:03.289Z,59.67
2023-01-25T11:14:32.167Z,56.03
2023-01-25T11:17:01.701Z,53.55
2023-01-25T11:19:32.776Z,52.92
2023-01-25T11:22:01.213Z,55.70
2023-01-25T11:24:33.449Z,58.55
2023-01-25T11:27:18.730Z,58.63
2023-01-25T11:29:47.126Z,89.80
2023-01-25T11:32:21.541Z,70.40
2023-01-25T11:34:50.159Z,146.63
2023-01-25T11:37:32.336Z,89.32
2023-01-25T11:40:13.120Z,60.72
2023-01-25T11:43:06.194Z,70.97
2023-01-25T11:45:55.373Z,56.20
2023-01-25T11:48:32.989Z,71.80
2023-01-25T11:51:07.110Z,54.08
2023-01-25T11:54:05.855Z,52.83
2023-01-25T11:56:57.207Z,53.20
2023-01-25T11:59:35.572Z,54.80
2023-01-25T12:02:02.711Z,64.20
2023-01-25T12:04:47.320Z,53.33
2023-01-25T12:07:37.163Z,53.55
2023-01-25T12:10:14.455Z,51.25
2023-01-25T12:13:11.338Z,56.50
2023-01-25T12:16:02.217Z,47.35
2023-01-25T12:18:37.733Z,52.30
2023-01-25T12:21:31.468Z,46.95
2023-01-25T12:24:25.811Z,47.75
2023-01-25T12:26:52.290Z,52.97
2023-01-25T12:29:18.740Z,52.40
2023-01-25T12:32:05.144Z,51.10
2023-01-25T12:34:41.376Z,56.45
2023-01-25T12:37:32.751Z,50.10
2023-01-25T12:40:04.841Z,49.42
2023-01-25T12:42:44.440Z,63.47
2023-01-25T12:45:25.225Z,50.72
2023-01-25T12:48:13.122Z,58.70
2023-01-25T12:50:49.614Z,56.50
2023-01-25T12:53:52.427Z,50.70
2023-01-25T12:57:09.752Z,58.35
2023-01-25T13:00:19.617Z,53.95
2023-01-25T13:03:06.839Z,48.78
2023-01-25T13:05:51.877Z,49.47
2023-01-25T13:08:34.524Z,47.03
2023-01-25T13:11:31.912Z,47.67
2023-01-25T13:14:16.707Z,50.85
2023-01-25T13:17:10.372Z,50.25
2023-01-25T13:19:37.499Z,44.25
2023-01-25T13:22:04.908Z,47.15
2023-01-25T13:24:55.317Z,47.75
2023-01-25T13:27:27.254Z,50.38
2023-01-25T13:29:59.369Z,49.30
2023-01-25T13:32:25.808Z,55.40
2023-01-25T13:34:52.205Z,52.33
2023-01-25T13:37:21.628Z,47.38
2023-01-25T13:40:07.767Z,51.17
2023-01-25T13:42:38.576Z,47.00
2023-01-25T13:45:15.725Z,49.42
2023-01-25T13:47:44.117Z,47.20
2023-01-25T13:50:25.863Z,52.00
2023-01-25T13:53:03.745Z,49.55
2023-01-25T13:55:39.681Z,50.70
2023-01-25T13:58:22.336Z,50.88
2023-01-25T14:01:08.585Z,52.90
2023-01-25T14:03:51.143Z,50.33
2023-01-25T14:06:22.207Z,50.75
2023-01-25T14:08:49.860Z,52.60
2023-01-25T14:11:22.451Z,52.00
2023-01-25T14:14:02.489Z,51.00
2023-01-25T14:16:31.052Z,55.50
2023-01-25T14:19:18.507Z,66.35
2023-01-25T14:21:44.909Z,55.42
2023-01-25T14:24:11.884Z,53.97
2023-01-25T14:26:41.946Z,53.22
2023-01-25T14:29:35.393Z,61.85
2023-01-25T14:32:03.042Z,55.83
2023-01-25T14:34:29.541Z,61.50
2023-01-25T14:37:18.566Z,58.92
2023-01-25T14:39:46.131Z,54.45
2023-01-25T14:42:12.998Z,58.42
2023-01-25T14:44:40.096Z,58.40
2023-01-25T14:47:30.068Z,58.00
2023-01-25T14:50:35.572Z,64.63
2023-01-25T14:53:23.611Z,57.95
2023-01-25T14:55:51.125Z,63.45
2023-01-25T14:58:20.970Z,61.67
2023-01-25T15:01:02.238Z,59.28
2023-01-25T15:03:30.797Z,59.30
2023-01-25T15:06:02.942Z,60.08
2023-01-25T15:08:37.162Z,62.65
2023-01-25T15:11:22.464Z,59.30
2023-01-25T15:13:49.016Z,57.33
2023-01-25T15:16:16.460Z,58.53
2023-01-25T15:18:43.174Z,70.55
2023-01-25T15:21:17.215Z,71.13
2023-01-25T15:23:45.974Z,103.78
2023-01-25T15:26:25.892Z,80.65
2023-01-25T15:28:55.675Z,64.72
2023-01-25T15:31:26.334Z,60.05
2023-01-25T15:33:53.334Z,58.55
2023-01-25T15:36:20.286Z,58.45
2023-01-25T15:38:46.824Z,60.47
2023-01-25T15:41:14.197Z,75.53
2023-01-25T15:43:41.304Z,55.35
2023-01-25T15:46:16.980Z,57.80
2023-01-25T15:48:45.342Z,68.95
2023-01-25T15:51:12.996Z,58.83
2023-01-25T15:53:40.155Z,56.67
2023-01-25T15:56:13.007Z,62.92
2023-01-25T15:58:41.735Z,75.40
2023-01-25T16:01:08.758Z,60.40
2023-01-25T16:03:35.716Z,56.42
2023-01-25T16:06:16.897Z,55.22
2023-01-25T16:08:43.500Z,52.00
2023-01-25T16:11:10.067Z,56.40
2023-01-25T16:13:36.855Z,50.38
2023-01-25T16:16:03.606Z,53.45
2023-01-25T16:18:30.176Z,53.33
2023-01-25T16:20:56.603Z,52.97
2023-01-25T16:23:22.996Z,50.05
2023-01-25T16:25:49.463Z,48.60
2023-01-25T16:28:16.257Z,56.13
2023-01-25T16:30:45.031Z,50.13
2023-01-25T16:33:11.858Z,51.92
2023-01-25T16:35:38.533Z,60.28
2023-01-25T16:38:05.123Z,55.03
2023-01-25T16:40:39.719Z,60.83
2023-01-25T16:43:06.482Z,62.55
2023-01-25T16:45:33.044Z,55.17
2023-01-25T16:48:00.015Z,69.63
2023-01-25T16:50:26.530Z,59.63
2023-01-25T16:52:54.733Z,54.83
2023-01-25T16:55:21.162Z,67.35
2023-01-25T16:57:51.321Z,65.57
2023-01-25T17:02:58.199Z,75.00
2023-01-25T17:05:29.219Z,61.58
2023-01-25T17:07:55.955Z,56.60
2023-01-25T17:10:23.560Z,59.65
2023-01-25T17:12:50.564Z,69.00
2023-01-25T17:15:19.866Z,59.67
2023-01-25T17:17:46.558Z,81.13
2023-01-25T17:20:13.103Z,59.75
2023-01-25T17:22:40.508Z,64.88
2023-01-25T17:25:07.317Z,56.88
2023-01-25T17:27:33.749Z,56.28
2023-01-25T17:30:00.184Z,58.60
2023-01-25T17:32:26.628Z,65.55
2023-01-25T17:34:53.770Z,59.15
2023-01-25T17:37:20.335Z,157.15
2023-01-25T17:39:47.635Z,93.03
2023-01-25T17:42:14.587Z,86.63
2023-01-25T17:44:41.201Z,100.15
2023-01-25T17:47:07.596Z,114.75
2023-01-25T17:49:34.148Z,78.53
2023-01-25T17:52:02.232Z,98.47
2023-01-25T17:54:28.851Z,75.03
2023-01-25T17:56:55.535Z,68.03
2023-01-25T17:59:22.052Z,66.28
2023-01-25T18:01:48.607Z,70.72
2023-01-25T18:04:18.098Z,72.95
2023-01-25T18:06:44.766Z,77.22
2023-01-25T18:09:11.257Z,69.95
2023-01-25T18:11:40.795Z,73.10
2023-01-25T18:14:12.803Z,63.78
2023-01-25T18:16:40.729Z,64.70
2023-01-25T18:19:07.975Z,58.85
2023-01-25T18:21:35.006Z,62.75
2023-01-25T18:24:23.428Z,62.47
2023-01-25T18:26:50.858Z,61.20
2023-01-25T18:29:17.265Z,62.28
2023-01-25T18:31:44.230Z,63.20
2023-01-25T18:34:10.716Z,66.45
2023-01-25T18:36:37.266Z,65.85
2023-01-25T18:39:06.770Z,77.60
2023-01-25T18:41:33.267Z,83.45
2023-01-25T18:43:59.923Z,69.57
2023-01-25T18:46:26.321Z,66.88
2023-01-25T18:48:52.726Z,78.05
2023-01-25T18:51:19.254Z,83.35
2023-01-25T18:53:49.122Z,98.13
2023-01-25T18:56:21.208Z,68.88
2023-01-25T18:58:48.576Z,65.38
2023-01-25T19:01:21.111Z,60.00
2023-01-25T19:03:49.599Z,61.47
2023-01-25T19:06:16.942Z,63.17
2023-01-25T19:08:46.334Z,64.13
2023-01-25T19:11:15.972Z,60.00
2023-01-25T19:13:44.132Z,55.38
2023-01-25T19:16:24.529Z,57.85
2023-01-25T19:18:53.615Z,72.00
2023-01-25T19:21:22.820Z,62.70
2023-01-25T19:23:50.046Z,56.70
2023-01-25T19:26:19.101Z,59.47
2023-01-25T19:28:46.969Z,54.30
2023-01-25T19:31:24.770Z,58.20
2023-01-25T19:33:56.176Z,55.67
2023-01-25T19:36:23.175Z,63.17
2023-01-25T19:38:49.899Z,62.47
2023-01-25T19:41:21.440Z,57.83
2023-01-25T19:43:52.106Z,77.75
2023-01-25T19:46:20.763Z,57.50
2023-01-25T19:48:50.051Z,58.45
2023-01-25T19:51:22.532Z,59.80
2023-01-25T19:54:15.187Z,59.40
2023-01-25T19:56:43.125Z,61.13
2023-01-25T19:59:15.453Z,57.03
2023-01-25T20:01:43.889Z,61.53
2023-01-25T20:04:17.412Z,64.53
2023-01-25T20:06:43.826Z,60.60
2023-01-25T20:09:12.898Z,61.35
2023-01-25T20:11:40.733Z,66.25
2023-01-25T20:14:08.006Z,74.68
2023-01-25T20:16:35.343Z,71.30
2023-01-25T20:19:03.005Z,58.15
2023-01-25T20:21:31.065Z,62.50
2023-01-25T20:24:02.337Z,61.55
2023-01-25T20:26:34.797Z,60.92
2023-01-25T20:29:01.301Z,58.95
2023-01-25T20:31:33.752Z,59.88
2023-01-25T20:34:03.676Z,58.20
2023-01-25T20:36:31.569Z,60.15
2023-01-25T20:38:58.133Z,64.43
2023-01-25T20:41:25.019Z,68.38
2023-01-25T20:44:06.961Z,66.55
2023-01-25T20:46:34.663Z,64.85
2023-01-25T20:49:03.230Z,54.80
2023-01-25T20:51:29.954Z,66.88
2023-01-25T20:53:56.964Z,59.78
2023-01-25T20:56:23.860Z,54.80
2023-01-25T20:58:51.367Z,59.88
2023-01-25T21:01:28.237Z,57.35
2023-01-25T21:03:56.863Z,57.33
2023-01-25T21:06:24.958Z,58.30
2023-01-25T21:08:51.455Z,60.08
2023-01-25T21:11:18.038Z,58.40
2023-01-25T21:13:44.498Z,55.88
2023-01-25T21:16:15.118Z,60.80
2023-01-25T21:18:52.702Z,62.80
2023-01-25T21:21:21.876Z,64.53
2023-01-25T21:23:50.483Z,62.47
2023-01-25T21:26:20.264Z,67.25
2023-01-25T21:28:47.826Z,62.65
2023-01-25T21:31:20.174Z,64.93
2023-01-25T21:33:47.521Z,64.90
2023-01-25T21:36:15.830Z,62.33
2023-01-25T21:38:44.044Z,72.30
2023-01-25T21:41:13.096Z,72.00
2023-01-25T21:43:58.309Z,65.70
2023-01-25T21:46:26.963Z,64.50
2023-01-25T21:49:12.527Z,67.68
2023-01-25T21:51:46.976Z,74.53
2023-01-25T21:54:21.679Z,73.45
2023-01-25T21:56:50.141Z,72.28
2023-01-25T21:59:17.059Z,66.07
2023-01-25T22:01:44.245Z,65.68
2023-01-25T22:04:12.143Z,69.63
2023-01-25T22:06:38.907Z,61.55
2023-01-25T22:09:06.157Z,57.47
2023-01-25T22:11:32.958Z,64.50
2023-01-25T22:14:00.983Z,69.30
2023-01-25T22:16:29.297Z,65.28
2023-01-25T22:18:56.459Z,62.63
2023-01-25T22:21:25.635Z,65.78
2023-01-25T22:23:52.747Z,65.30
2023-01-25T22:26:21.307Z,78.38
2023-01-25T22:28:56.162Z,73.13
2023-01-25T22:31:24.872Z,74.53
2023-01-25T22:33:53.024Z,65.95
2023-01-25T22:36:21.765Z,73.43
2023-01-25T22:38:48.655Z,88.97
2023-01-25T22:41:24.666Z,81.20
2023-01-25T22:43:52.931Z,70.85
2023-01-25T22:46:21.479Z,64.57
2023-01-25T22:48:48.447Z,64.72
2023-01-25T22:51:26.692Z,67.82
2023-01-25T22:53:54.328Z,62.78
2023-01-25T22:56:24.132Z,71.60
2023-01-25T22:58:51.560Z,67.95
2023-01-25T23:01:23.863Z,70.47
2023-01-25T23:03:51.241Z,76.05
2023-01-25T23:06:26.570Z,67.70
2023-01-25T23:08:59.737Z,67.85
2023-01-25T23:11:32.181Z,68.93
2023-01-25T23:14:17.941Z,68.82
2023-01-25T23:16:44.606Z,71.28
2023-01-25T23:19:11.267Z,69.32
2023-01-25T23:21:37.854Z,69.57
2023-01-25T23:24:04.632Z,67.80
2023-01-25T23:26:37.554Z,63.58
2023-01-25T23:29:06.815Z,65.88
2023-01-25T23:31:33.365Z,64.88
2023-01-25T23:34:02.228Z,67.63
2023-01-25T23:36:38.774Z,65.63
2023-01-25T23:39:05.340Z,69.90
2023-01-25T23:41:32.220Z,67.75
2023-01-25T23:43:59.620Z,66.30
2023-01-25T23:46:27.452Z,71.72
2023-01-25T23:48:54.042Z,63.00
2023-01-25T23:51:20.472Z,66.22
2023-01-25T23:53:47.381Z,66.05
2023-01-25T23:56:16.906Z,60.63
2023-01-25T23:58:44.338Z,67.47
